Time;durP1;ratioP1;P1;durP2;ratioP2;P2;SDS_P1;SDS_P2;PMS_P1;PMS_P2;Temp;Humidity;BMP_temperature;BMP_pressure;BME280_temperature;BME280_humidity;BME280_pressure;Samples;Min_cycle;Max_cycle;Signal;HPM_P1;HPM_P2
2020/03/20 00:00:54;;;;;;;28.8;14;;;;;;;8.84;74.91211;942.6217;;;;
2020/03/20 00:03:19;;;;;;;29.4;14.4;;;;;;;8.85;74.82422;942.6291;;;;
2020/03/20 00:05:44;;;;;;;29.3;12.8;;;;;;;8.81;74.66895;942.5837;;;;
2020/03/20 00:08:09;;;;;;;29.6;13.5;;;;;;;8.74;74.9082;942.5176;;;;
2020/03/20 00:10:34;;;;;;;35.7;15.3;;;;;;;8.74;75.00879;942.4578;;;;
2020/03/20 00:12:59;;;;;;;39;15.4;;;;;;;8.64;75.25391;942.5129;;;;
2020/03/20 00:15:25;;;;;;;26.8;12.3;;;;;;;8.59;75.5293;942.5081;;;;
2020/03/20 00:17:49;;;;;;;19;9.3;;;;;;;8.42;76.19238;942.4978;;;;
2020/03/20 00:20:15;;;;;;;20;10.1;;;;;;;8.47;76.12012;942.418;;;;
2020/03/20 00:22:40;;;;;;;20.3;10.3;;;;;;;8.44;76.37891;942.4412;;;;
2020/03/20 00:25:05;;;;;;;20.7;9.8;;;;;;;8.46;76.54102;942.3734;;;;
2020/03/20 00:27:30;;;;;;;18.1;9.9;;;;;;;8.41;76.95117;942.3139;;;;
2020/03/20 00:29:55;;;;;;;20.2;10;;;;;;;8.45;76.68555;942.3652;;;;
2020/03/20 00:32:30;;;;;;;22.2;12.6;;;;;;;8.53;76.58594;942.3552;;;;
2020/03/20 00:35:28;;;;;;;17.1;10.8;;;;;;;8.54;76.22559;942.3047;;;;
2020/03/20 00:37:12;;;;;;;17.5;10.5;;;;;;;8.57;75.94629;942.3173;;;;
2020/03/20 00:39:37;;;;;;;17.6;10.6;;;;;;;8.46;76.2002;942.2781;;;;
2020/03/20 00:42:16;;;;;;;18.3;10.6;;;;;;;8.4;76.3916;942.1978;;;;
2020/03/20 00:44:41;;;;;;;51.5;25.6;;;;;;;8.26;76.82324;942.2133;;;;
2020/03/20 00:47:06;;;;;;;45.3;23.3;;;;;;;8.25;76.65039;942.1614;;;;
2020/03/20 00:49:31;;;;;;;36.2;20.9;;;;;;;8.08;77.1416;942.1728;;;;
2020/03/20 00:52:06;;;;;;;32.8;19.4;;;;;;;8.07;77.03906;942.1252;;;;
2020/03/20 00:54:31;;;;;;;34.2;20.8;;;;;;;7.94;77.42188;942.1;;;;
2020/03/20 00:56:56;;;;;;;37.6;21.9;;;;;;;7.83;77.77734;942.0408;;;;
2020/03/20 00:59:21;;;;;;;26.6;16.1;;;;;;;7.86;77.64746;942.0965;;;;
2020/03/20 01:01:47;;;;;;;19.2;11.3;;;;;;;7.79;78.50781;942.0087;;;;
2020/03/20 01:04:12;;;;;;;19.2;11.1;;;;;;;7.74;78.74902;942.0391;;;;
2020/03/20 01:06:37;;;;;;;16.3;10.2;;;;;;;7.75;78.97754;941.9688;;;;
2020/03/20 01:09:02;;;;;;;20.4;13.1;;;;;;;7.69;79.13477;942.0804;;;;
2020/03/20 01:11:27;;;;;;;30.7;16.7;;;;;;;7.7;79.17188;942.0554;;;;
2020/03/20 01:14:29;;;;;;;24.7;16.3;;;;;;;7.73;78.74805;942.0389;;;;
2020/03/20 01:17:29;;;;;;;21.3;13.2;;;;;;;7.72;78.83496;942.014;;;;
2020/03/20 01:19:54;;;;;;;15.9;10.7;;;;;;;7.7;79.04688;942.0515;;;;
2020/03/20 01:22:41;;;;;;;17.4;10.5;;;;;;;7.73;78.54297;942.0151;;;;
2020/03/20 01:25:07;;;;;;;25.7;13.2;;;;;;;7.68;78.8623;942.0352;;;;
2020/03/20 01:27:32;;;;;;;27.1;12.8;;;;;;;7.67;79.12012;942.0308;;;;
2020/03/20 01:29:57;;;;;;;24;13.1;;;;;;;7.71;78.92383;942.0192;;;;
2020/03/20 01:34:47;;;;;;;25.6;13.3;;;;;;;7.53;79.84375;941.981;;;;
2020/03/20 01:37:13;;;;;;;14.1;9.2;;;;;;;7.58;79.42285;941.9578;;;;
2020/03/20 01:39:37;;;;;;;26.2;13.4;;;;;;;7.68;78.51074;941.9386;;;;
2020/03/20 01:42:03;;;;;;;31;15.8;;;;;;;7.62;78.35352;941.9775;;;;
2020/03/20 01:44:33;;;;;;;28.3;15.3;;;;;;;7.5;78.73828;941.8889;;;;
2020/03/20 01:46:58;;;;;;;19.7;11;;;;;;;7.35;79.53809;941.865;;;;
2020/03/20 01:49:23;;;;;;;15.7;9.5;;;;;;;7.4;79.62695;941.9202;;;;
2020/03/20 01:51:48;;;;;;;14.1;9;;;;;;;7.47;79.4707;941.8456;;;;
2020/03/20 01:56:04;;;;;;;12;8.6;;;;;;;7.41;79.83301;941.7567;;;;
2020/03/20 01:58:30;;;;;;;14.9;8.5;;;;;;;7.43;79.31445;941.8531;;;;
2020/03/20 02:01:22;;;;;;;12.2;8.4;;;;;;;7.28;79.45801;941.8822;;;;
2020/03/20 02:04:04;;;;;;;14.8;8.7;;;;;;;7.03;80.95117;941.8906;;;;
2020/03/20 02:06:39;;;;;;;24.9;12.7;;;;;;;7.08;80.88281;941.8826;;;;
2020/03/20 02:09:04;;;;;;;16.9;10.1;;;;;;;7.09;80.84863;941.7924;;;;
2020/03/20 02:11:29;;;;;;;17.1;9.7;;;;;;;7.18;80.51465;941.7879;;;;
2020/03/20 02:13:54;;;;;;;14.9;9.6;;;;;;;7.15;80.33008;941.8474;;;;
2020/03/20 02:16:19;;;;;;;13.6;9.4;;;;;;;7.06;80.83398;941.8369;;;;
2020/03/20 02:18:45;;;;;;;23.3;13.6;;;;;;;7.04;80.69238;941.856;;;;
2020/03/20 02:23:02;;;;;;;21.5;13.5;;;;;;;6.96;81.4375;941.7831;;;;
2020/03/20 02:25:27;;;;;;;15.7;10.5;;;;;;;6.83;82.01172;941.8624;;;;
2020/03/20 02:27:52;;;;;;;17.5;9.9;;;;;;;6.87;82.08691;941.8549;;;;
2020/03/20 02:30:18;;;;;;;19.6;10.9;;;;;;;6.95;81.29688;941.8618;;;;
2020/03/20 02:32:43;;;;;;;19.6;11.4;;;;;;;6.98;81.02246;941.9119;;;;
2020/03/20 02:35:08;;;;;;;18.3;10.9;;;;;;;7.06;80.58301;941.9357;;;;
2020/03/20 02:37:34;;;;;;;18;10.6;;;;;;;7.08;80.1123;941.9008;;;;
2020/03/20 02:39:59;;;;;;;13.5;10.1;;;;;;;7.12;80.12988;941.9083;;;;
2020/03/20 02:42:24;;;;;;;14.5;9.6;;;;;;;7.19;79.63379;941.9142;;;;
2020/03/20 02:44:51;;;;;;;15.6;9;;;;;;;7.12;79.21289;941.8591;;;;
2020/03/20 02:47:16;;;;;;;23.1;12.3;;;;;;;7.04;79.18652;941.9082;;;;
2020/03/20 02:49:41;;;;;;;18.1;10.6;;;;;;;6.9;79.64648;941.884;;;;
2020/03/20 02:52:06;;;;;;;20.1;11.4;;;;;;;6.71;80.95996;941.9005;;;;
2020/03/20 02:54:31;;;;;;;17.8;10.2;;;;;;;6.71;81.69531;941.895;;;;
2020/03/20 02:56:57;;;;;;;16.9;10.1;;;;;;;6.83;81.23242;941.8777;;;;
2020/03/20 02:59:22;;;;;;;18.9;10.3;;;;;;;6.81;81.22754;941.8635;;;;
2020/03/20 03:01:47;;;;;;;17.7;10.8;;;;;;;6.74;81.16895;941.7755;;;;
2020/03/20 03:04:12;;;;;;;18.6;11.1;;;;;;;6.59;81.66016;941.808;;;;
2020/03/20 03:06:57;;;;;;;29.1;14.1;;;;;;;6.55;82.8877;941.8166;;;;
2020/03/20 03:09:22;;;;;;;27.2;13;;;;;;;6.65;82.60938;941.7879;;;;
2020/03/20 03:11:50;;;;;;;28.1;12.9;;;;;;;6.62;81.85938;941.7841;;;;
2020/03/20 03:14:15;;;;;;;20.9;11.1;;;;;;;6.44;82.60547;941.7711;;;;
2020/03/20 03:16:40;;;;;;;15.5;9.5;;;;;;;6.33;82.94434;941.7611;;;;
2020/03/20 03:19:05;;;;;;;12.5;8.5;;;;;;;6.29;83.24023;941.7668;;;;
2020/03/20 03:21:30;;;;;;;12.2;8.2;;;;;;;6.26;83.22559;941.7464;;;;
2020/03/20 03:23:55;;;;;;;12.4;7.6;;;;;;;6.26;83.09961;941.7321;;;;
2020/03/20 03:26:20;;;;;;;10.8;7.2;;;;;;;6.27;82.65137;941.7537;;;;
2020/03/20 03:28:46;;;;;;;10.5;7.3;;;;;;;6.19;83.30078;941.7342;;;;
2020/03/20 03:31:11;;;;;;;10.4;7.8;;;;;;;6.09;83.74609;941.7367;;;;
2020/03/20 03:33:36;;;;;;;15;8.5;;;;;;;6.06;83.80859;941.7201;;;;
2020/03/20 03:36:01;;;;;;;12.6;8.1;;;;;;;6.09;83.49805;941.7138;;;;
2020/03/20 03:38:26;;;;;;;12.5;8.5;;;;;;;6.09;83.22656;941.6703;;;;
2020/03/20 03:40:51;;;;;;;12.4;8.4;;;;;;;5.96;83.77832;941.6937;;;;
2020/03/20 03:43:16;;;;;;;10.7;7.8;;;;;;;5.91;84.43359;941.6848;;;;
2020/03/20 03:45:42;;;;;;;12.4;8.1;;;;;;;5.97;83.83594;941.6774;;;;
2020/03/20 03:48:07;;;;;;;11.4;7.9;;;;;;;6.03;83.64355;941.6708;;;;
2020/03/20 03:50:32;;;;;;;12.1;8.2;;;;;;;6.14;83.21387;941.7147;;;;
2020/03/20 03:52:57;;;;;;;11.5;7.8;;;;;;;6.14;82.53418;941.7058;;;;
2020/03/20 03:55:22;;;;;;;11.8;8;;;;;;;6.26;81.66406;941.7431;;;;
2020/03/20 03:57:47;;;;;;;11.6;8.2;;;;;;;6.17;81.64844;941.7377;;;;
2020/03/20 04:02:30;;;;;;;11.2;7.9;;;;;;;6.04;82.04297;941.6855;;;;
2020/03/20 04:04:55;;;;;;;9.1;7.5;;;;;;;;;;;;;
2020/03/20 04:07:20;;;;;;;12.1;7.6;;;;;;;;;;;;;
2020/03/20 04:10:38;;;;;;;9.6;7.1;;;;;;;;;;;;;
2020/03/20 04:12:10;;;;;;;12.4;7;;;;;;;;;;;;;
2020/03/20 04:14:35;;;;;;;10.8;6.9;;;;;;;;;;;;;
2020/03/20 04:17:00;;;;;;;10.5;7.4;;;;;;;;;;;;;
2020/03/20 04:19:25;;;;;;;10.3;7;;;;;;;;;;;;;
2020/03/20 04:21:50;;;;;;;12.7;7.3;;;;;;;;;;;;;
2020/03/20 04:24:16;;;;;;;9.9;7.2;;;;;;;;;;;;;
2020/03/20 04:26:41;;;;;;;10;7;;;;;;;;;;;;;
2020/03/20 04:29:06;;;;;;;11.8;7.4;;;;;;;;;;;;;
2020/03/20 04:31:31;;;;;;;11.7;7.6;;;;;;;;;;;;;
2020/03/20 04:33:56;;;;;;;22.7;8.1;;;;;;;;;;;;;
2020/03/20 04:36:22;;;;;;;12;7.8;;;;;;;;;;;;;
2020/03/20 04:38:47;;;;;;;14.4;7.8;;;;;;;;;;;;;
2020/03/20 04:41:12;;;;;;;12.4;7.7;;;;;;;;;;;;;
2020/03/20 04:43:38;;;;;;;11.1;6.7;;;;;;;;;;;;;
2020/03/20 04:46:03;;;;;;;12.5;7.1;;;;;;;;;;;;;
2020/03/20 04:48:28;;;;;;;10;6.5;;;;;;;;;;;;;
2020/03/20 04:50:53;;;;;;;12.4;6.5;;;;;;;;;;;;;
2020/03/20 04:53:18;;;;;;;11.6;6.7;;;;;;;;;;;;;
2020/03/20 04:55:43;;;;;;;12.2;8;;;;;;;;;;;;;
2020/03/20 04:58:09;;;;;;;14.2;7.5;;;;;;;;;;;;;
2020/03/20 05:00:34;;;;;;;17.2;13.7;;;;;;;;;;;;;
2020/03/20 05:02:59;;;;;;;14.1;10.5;;;;;;;;;;;;;
2020/03/20 05:05:24;;;;;;;14.3;9.7;;;;;;;;;;;;;
2020/03/20 05:07:49;;;;;;;14.8;9.3;;;;;;;;;;;;;
2020/03/20 05:10:14;;;;;;;12.4;8.4;;;;;;;;;;;;;
2020/03/20 05:12:39;;;;;;;12.3;7.7;;;;;;;;;;;;;
2020/03/20 05:15:05;;;;;;;10.6;7.1;;;;;;;;;;;;;
2020/03/20 05:17:30;;;;;;;14.8;7.6;;;;;;;;;;;;;
2020/03/20 05:19:55;;;;;;;11.6;6.8;;;;;;;;;;;;;
2020/03/20 05:22:21;;;;;;;13.5;6.6;;;;;;;;;;;;;
2020/03/20 05:24:46;;;;;;;12;6.6;;;;;;;;;;;;;
2020/03/20 05:27:11;;;;;;;15.5;7.9;;;;;;;;;;;;;
2020/03/20 05:29:36;;;;;;;14.7;8.2;;;;;;;;;;;;;
2020/03/20 05:32:01;;;;;;;14.3;8;;;;;;;;;;;;;
2020/03/20 05:34:26;;;;;;;13;7.2;;;;;;;;;;;;;
2020/03/20 05:36:51;;;;;;;10.2;6.7;;;;;;;;;;;;;
2020/03/20 05:39:17;;;;;;;11.7;7.2;;;;;;;;;;;;;
2020/03/20 05:41:42;;;;;;;15.8;8.1;;;;;;;;;;;;;
2020/03/20 05:44:07;;;;;;;12.6;7.6;;;;;;;;;;;;;
2020/03/20 05:46:32;;;;;;;13.3;8;;;;;;;;;;;;;
2020/03/20 05:48:57;;;;;;;12.8;7.2;;;;;;;;;;;;;
2020/03/20 05:51:22;;;;;;;10.9;6.6;;;;;;;;;;;;;
2020/03/20 05:53:47;;;;;;;10.7;6.6;;;;;;;;;;;;;
2020/03/20 05:56:12;;;;;;;13.3;6.9;;;;;;;;;;;;;
2020/03/20 05:58:38;;;;;;;13.4;7;;;;;;;;;;;;;
2020/03/20 06:01:03;;;;;;;13.1;6;;;;;;;;;;;;;
2020/03/20 06:03:28;;;;;;;15.9;6.2;;;;;;;;;;;;;
2020/03/20 06:05:53;;;;;;;10.2;6.6;;;;;;;;;;;;;
2020/03/20 06:08:18;;;;;;;11.2;5.8;;;;;;;;;;;;;
2020/03/20 06:10:43;;;;;;;11.1;6;;;;;;;;;;;;;
2020/03/20 06:13:08;;;;;;;13.7;8.4;;;;;;;;;;;;;
2020/03/20 06:15:34;;;;;;;20;10.1;;;;;;;;;;;;;
2020/03/20 06:17:59;;;;;;;20.1;11.7;;;;;;;;;;;;;
2020/03/20 06:20:24;;;;;;;20.5;10.8;;;;;;;;;;;;;
2020/03/20 06:22:49;;;;;;;27.4;14.3;;;;;;;;;;;;;
2020/03/20 06:25:14;;;;;;;12.9;7.9;;;;;;;;;;;;;
2020/03/20 06:27:39;;;;;;;20.9;8.2;;;;;;;;;;;;;
2020/03/20 06:30:04;;;;;;;16.6;7;;;;;;;;;;;;;
2020/03/20 06:32:30;;;;;;;14.1;6.6;;;;;;;;;;;;;
2020/03/20 06:34:55;;;;;;;15.5;6.5;;;;;;;;;;;;;
2020/03/20 06:37:21;;;;;;;12.1;6;;;;;;;;;;;;;
2020/03/20 06:39:46;;;;;;;10.5;5.3;;;;;;;;;;;;;
2020/03/20 06:42:11;;;;;;;12.5;5.7;;;;;;;;;;;;;
2020/03/20 06:44:36;;;;;;;14.7;5.9;;;;;;;;;;;;;
2020/03/20 06:49:32;;;;;;;11.6;5.9;;;;;;;;;;;;;
2020/03/20 06:51:52;;;;;;;13.8;5.8;;;;;;;;;;;;;
2020/03/20 06:54:17;;;;;;;14.2;5.4;;;;;;;;;;;;;
2020/03/20 06:56:42;;;;;;;11.3;4.7;;;;;;;;;;;;;
2020/03/20 06:59:07;;;;;;;15.6;4.7;;;;;;;;;;;;;
2020/03/20 07:01:32;;;;;;;11.3;4.4;;;;;;;;;;;;;
2020/03/20 07:03:57;;;;;;;9.2;4.1;;;;;;;;;;;;;
2020/03/20 07:06:22;;;;;;;7.8;3.5;;;;;;;;;;;;;
2020/03/20 07:08:47;;;;;;;9.1;3.7;;;;;;;;;;;;;
2020/03/20 07:11:12;;;;;;;8;3.2;;;;;;;;;;;;;
2020/03/20 07:13:37;;;;;;;7.2;3.3;;;;;;;;;;;;;
2020/03/20 07:16:03;;;;;;;9.2;3;;;;;;;;;;;;;
2020/03/20 07:18:28;;;;;;;11.2;3.2;;;;;;;;;;;;;
2020/03/20 07:20:53;;;;;;;10;3.5;;;;;;;;;;;;;
2020/03/20 07:23:18;;;;;;;8.6;3;;;;;;;;;;;;;
2020/03/20 07:25:43;;;;;;;8.7;2.9;;;;;;;;;;;;;
2020/03/20 07:28:08;;;;;;;7.9;3.1;;;;;;;;;;;;;
2020/03/20 07:30:33;;;;;;;7.9;3.1;;;;;;;;;;;;;
2020/03/20 07:32:58;;;;;;;5;2.7;;;;;;;;;;;;;
2020/03/20 07:35:23;;;;;;;9;3.2;;;;;;;;;;;;;
2020/03/20 07:37:49;;;;;;;6.4;2.9;;;;;;;;;;;;;
2020/03/20 07:40:14;;;;;;;5.9;2.9;;;;;;;;;;;;;
2020/03/20 07:42:39;;;;;;;6.4;3;;;;;;;;;;;;;
2020/03/20 07:45:04;;;;;;;4.9;2.7;;;;;;;;;;;;;
2020/03/20 07:47:29;;;;;;;9;3.1;;;;;;;;;;;;;
2020/03/20 07:49:54;;;;;;;5.6;2.6;;;;;;;;;;;;;
2020/03/20 07:52:19;;;;;;;6.1;2.9;;;;;;;;;;;;;
2020/03/20 07:54:44;;;;;;;4.4;2.4;;;;;;;;;;;;;
2020/03/20 07:57:10;;;;;;;8.1;2.6;;;;;;;;;;;;;
2020/03/20 07:59:35;;;;;;;6.7;2.8;;;;;;;;;;;;;
2020/03/20 08:02:00;;;;;;;6.8;2.5;;;;;;;;;;;;;
2020/03/20 08:04:25;;;;;;;7.1;2.6;;;;;;;;;;;;;
2020/03/20 08:06:50;;;;;;;5.8;2.5;;;;;;;;;;;;;
2020/03/20 08:09:15;;;;;;;6.6;2.6;;;;;;;;;;;;;
2020/03/20 08:11:40;;;;;;;4.6;2.2;;;;;;;;;;;;;
2020/03/20 08:14:05;;;;;;;3.9;2.3;;;;;;;;;;;;;
2020/03/20 08:16:30;;;;;;;6.2;2.3;;;;;;;;;;;;;
2020/03/20 08:18:56;;;;;;;6.5;2.4;;;;;;;;;;;;;
2020/03/20 08:21:21;;;;;;;5.2;2.1;;;;;;;;;;;;;
2020/03/20 08:23:46;;;;;;;4.7;2.3;;;;;;;;;;;;;
2020/03/20 08:26:12;;;;;;;5;2.2;;;;;;;;;;;;;
2020/03/20 08:28:37;;;;;;;6.3;2.4;;;;;;;;;;;;;
2020/03/20 08:31:02;;;;;;;4.5;2.1;;;;;;;;;;;;;
2020/03/20 08:33:27;;;;;;;4.6;2.2;;;;;;;;;;;;;
2020/03/20 08:35:52;;;;;;;4.9;2.3;;;;;;;;;;;;;
2020/03/20 08:38:17;;;;;;;5.1;2;;;;;;;;;;;;;
2020/03/20 08:40:42;;;;;;;7.1;2.3;;;;;;;;;;;;;
2020/03/20 08:43:08;;;;;;;6.2;2.3;;;;;;;;;;;;;
2020/03/20 08:45:33;;;;;;;4.9;2.4;;;;;;;;;;;;;
2020/03/20 08:47:58;;;;;;;7.5;2.5;;;;;;;;;;;;;
2020/03/20 08:50:32;;;;;;;4.1;2.1;;;;;;;;;;;;;
2020/03/20 08:52:48;;;;;;;4.9;2.2;;;;;;;;;;;;;
2020/03/20 08:55:13;;;;;;;7;2.4;;;;;;;;;;;;;
2020/03/20 08:57:38;;;;;;;5.6;2;;;;;;;;;;;;;
2020/03/20 09:00:03;;;;;;;4.4;2.1;;;;;;;;;;;;;
2020/03/20 09:02:29;;;;;;;5.7;2.1;;;;;;;;;;;;;
2020/03/20 09:04:55;;;;;;;6.2;2;;;;;;;;;;;;;
2020/03/20 09:07:19;;;;;;;4.2;1.7;;;;;;;;;;;;;
2020/03/20 09:09:45;;;;;;;10.1;2.3;;;;;;;;;;;;;
2020/03/20 09:12:10;;;;;;;5.7;2.2;;;;;;;;;;;;;
2020/03/20 09:14:35;;;;;;;3.6;1.7;;;;;;;;;;;;;
2020/03/20 09:17:00;;;;;;;3.8;2;;;;;;;;;;;;;
2020/03/20 09:19:25;;;;;;;3.8;2.2;;;;;;;;;;;;;
2020/03/20 09:21:50;;;;;;;6.5;2;;;;;;;;;;;;;
2020/03/20 09:24:15;;;;;;;7;2.3;;;;;;;;;;;;;
2020/03/20 09:26:40;;;;;;;4.4;2.3;;;;;;;;;;;;;
2020/03/20 09:29:05;;;;;;;5.2;2.3;;;;;;;;;;;;;
2020/03/20 09:31:31;;;;;;;5.9;2.2;;;;;;;;;;;;;
2020/03/20 09:33:56;;;;;;;5.1;2.3;;;;;;;;;;;;;
2020/03/20 09:36:21;;;;;;;4.6;2.2;;;;;;;;;;;;;
2020/03/20 09:38:46;;;;;;;4.5;2.3;;;;;;;;;;;;;
2020/03/20 09:41:12;;;;;;;5.1;2.4;;;;;;;;;;;;;
2020/03/20 09:43:37;;;;;;;5.1;2.4;;;;;;;;;;;;;
2020/03/20 09:46:02;;;;;;;6.1;2.2;;;;;;;;;;;;;
2020/03/20 09:48:27;;;;;;;4.6;2.2;;;;;;;;;;;;;
2020/03/20 09:50:52;;;;;;;4.1;2.3;;;;;;;;;;;;;
2020/03/20 09:53:17;;;;;;;6.3;2.6;;;;;;;;;;;;;
2020/03/20 09:55:43;;;;;;;6.4;3.4;;;;;;;;;;;;;
2020/03/20 09:58:08;;;;;;;7.3;3.6;;;;;;;;;;;;;
2020/03/20 10:00:33;;;;;;;5.6;3.3;;;;;;;;;;;;;
2020/03/20 10:02:58;;;;;;;6.9;2.8;;;;;;;;;;;;;
2020/03/20 10:05:23;;;;;;;6.8;3;;;;;;;;;;;;;
2020/03/20 10:07:48;;;;;;;8.1;3.3;;;;;;;;;;;;;
2020/03/20 10:10:13;;;;;;;7.2;2.8;;;;;;;;;;;;;
2020/03/20 10:12:39;;;;;;;7.5;3.4;;;;;;;;;;;;;
2020/03/20 10:15:04;;;;;;;6.1;3.8;;;;;;;;;;;;;
2020/03/20 10:17:29;;;;;;;7.2;4.3;;;;;;;;;;;;;
2020/03/20 10:19:54;;;;;;;6.3;3.3;;;;;;;;;;;;;
2020/03/20 10:22:19;;;;;;;5.7;3.4;;;;;;;;;;;;;
2020/03/20 10:24:44;;;;;;;6.1;3.2;;;;;;;;;;;;;
2020/03/20 10:27:10;;;;;;;7.9;3;;;;;;;;;;;;;
2020/03/20 10:29:35;;;;;;;7.5;3.6;;;;;;;;;;;;;
2020/03/20 10:32:00;;;;;;;6.9;3.7;;;;;;;;;;;;;
2020/03/20 10:34:25;;;;;;;12.1;4.5;;;;;;;;;;;;;
2020/03/20 10:36:50;;;;;;;9.7;5.7;;;;;;;;;;;;;
2020/03/20 10:39:15;;;;;;;8.1;5.6;;;;;;;;;;;;;
2020/03/20 10:41:41;;;;;;;11.8;6.2;;;;;;;;;;;;;
2020/03/20 10:44:06;;;;;;;11.1;6.3;;;;;;;;;;;;;
2020/03/20 10:46:31;;;;;;;8.8;5.8;;;;;;;;;;;;;
2020/03/20 10:48:56;;;;;;;10.3;6.1;;;;;;;;;;;;;
2020/03/20 10:51:21;;;;;;;10.5;6;;;;;;;;;;;;;
2020/03/20 10:53:46;;;;;;;10.8;6;;;;;;;;;;;;;
2020/03/20 10:56:12;;;;;;;11.2;5.9;;;;;;;;;;;;;
2020/03/20 10:58:37;;;;;;;11.6;6;;;;;;;;;;;;;
2020/03/20 11:01:02;;;;;;;9.3;6.4;;;;;;;;;;;;;
2020/03/20 11:03:27;;;;;;;9.7;6.4;;;;;;;;;;;;;
2020/03/20 11:05:52;;;;;;;10.8;6.6;;;;;;;;;;;;;
2020/03/20 11:08:17;;;;;;;9.4;6.5;;;;;;;;;;;;;
2020/03/20 11:10:42;;;;;;;9;5.7;;;;;;;;;;;;;
2020/03/20 11:13:08;;;;;;;9.2;5.6;;;;;;;;;;;;;
2020/03/20 11:15:32;;;;;;;9.4;5.4;;;;;;;;;;;;;
2020/03/20 11:17:58;;;;;;;9.6;6.3;;;;;;;;;;;;;
2020/03/20 11:20:23;;;;;;;11.5;6.1;;;;;;;;;;;;;
2020/03/20 11:22:48;;;;;;;12.3;6;;;;;;;;;;;;;
2020/03/20 11:25:13;;;;;;;9.2;5.9;;;;;;;;;;;;;
2020/03/20 11:27:39;;;;;;;8.4;5.9;;;;;;;;;;;;;
2020/03/20 11:30:03;;;;;;;8.1;5.2;;;;;;;;;;;;;
2020/03/20 11:32:28;;;;;;;11.6;5.6;;;;;;;;;;;;;
2020/03/20 11:34:53;;;;;;;10.9;5.5;;;;;;;;;;;;;
2020/03/20 11:37:18;;;;;;;8.5;5.3;;;;;;;;;;;;;
2020/03/20 11:39:44;;;;;;;10.6;6;;;;;;;;;;;;;
2020/03/20 11:42:09;;;;;;;9.2;6;;;;;;;;;;;;;
2020/03/20 11:44:34;;;;;;;11;6.2;;;;;;;;;;;;;
2020/03/20 11:46:59;;;;;;;12.6;6.7;;;;;;;;;;;;;
2020/03/20 11:49:24;;;;;;;10.8;6.1;;;;;;;;;;;;;
2020/03/20 11:51:49;;;;;;;11.3;6.5;;;;;;;;;;;;;
2020/03/20 11:54:14;;;;;;;11.4;6.5;;;;;;;;;;;;;
2020/03/20 11:56:40;;;;;;;10.5;5.5;;;;;;;;;;;;;
2020/03/20 11:59:05;;;;;;;11.5;6.2;;;;;;;;;;;;;
2020/03/20 12:01:30;;;;;;;8.5;5.2;;;;;;;;;;;;;
2020/03/20 12:03:55;;;;;;;10.3;5.8;;;;;;;;;;;;;
2020/03/20 12:06:20;;;;;;;11.1;6.2;;;;;;;;;;;;;
2020/03/20 12:08:45;;;;;;;11.3;6;;;;;;;;;;;;;
2020/03/20 12:11:10;;;;;;;10;5.7;;;;;;;;;;;;;
2020/03/20 12:13:35;;;;;;;9.6;6.3;;;;;;;;;;;;;
2020/03/20 12:16:00;;;;;;;12.1;5.9;;;;;;;;;;;;;
2020/03/20 12:18:25;;;;;;;10.4;6.3;;;;;;;;;;;;;
2020/03/20 12:20:51;;;;;;;11.6;6.1;;;;;;;;;;;;;
2020/03/20 12:23:16;;;;;;;10.8;6.5;;;;;;;;;;;;;
2020/03/20 12:25:41;;;;;;;9;5.9;;;;;;;;;;;;;
2020/03/20 12:28:06;;;;;;;11.1;6.2;;;;;;;;;;;;;
2020/03/20 12:30:31;;;;;;;9.1;6;;;;;;;;;;;;;
2020/03/20 12:32:56;;;;;;;10.9;6.3;;;;;;;;;;;;;
2020/03/20 12:35:21;;;;;;;10.2;5.8;;;;;;;;;;;;;
2020/03/20 12:37:46;;;;;;;10.8;6;;;;;;;;;;;;;
2020/03/20 12:40:11;;;;;;;9.3;5.7;;;;;;;;;;;;;
2020/03/20 12:42:37;;;;;;;11.3;6.1;;;;;;;;;;;;;
2020/03/20 12:45:02;;;;;;;8.4;5.7;;;;;;;;;;;;;
2020/03/20 12:47:27;;;;;;;10.1;6;;;;;;;;;;;;;
2020/03/20 12:49:52;;;;;;;13.2;6.1;;;;;;;;;;;;;
2020/03/20 12:52:17;;;;;;;10.5;6.5;;;;;;;;;;;;;
2020/03/20 12:54:42;;;;;;;11.7;6.4;;;;;;;;;;;;;
2020/03/20 12:57:07;;;;;;;11.5;6.7;;;;;;;;;;;;;
2020/03/20 12:59:37;;;;;;;10.2;6.7;;;;;;;;;;;;;
2020/03/20 13:01:57;;;;;;;9.4;6.3;;;;;;;;;;;;;
2020/03/20 13:04:22;;;;;;;11.3;6.8;;;;;;;;;;;;;
2020/03/20 13:06:48;;;;;;;9.6;6.6;;;;;;;;;;;;;
2020/03/20 13:09:13;;;;;;;10.7;6.7;;;;;;;;;;;;;
2020/03/20 13:11:38;;;;;;;12;6.3;;;;;;;;;;;;;
2020/03/20 13:14:04;;;;;;;12.9;6.5;;;;;;;;;;;;;
2020/03/20 13:16:29;;;;;;;7.9;6.1;;;;;;;;;;;;;
2020/03/20 13:18:54;;;;;;;9.6;5.8;;;;;;;;;;;;;
2020/03/20 13:21:19;;;;;;;14.3;6.5;;;;;;;;;;;;;
2020/03/20 13:23:44;;;;;;;11.8;6.3;;;;;;;;;;;;;
2020/03/20 13:26:09;;;;;;;14.3;6.6;;;;;;;;;;;;;
2020/03/20 13:28:34;;;;;;;9.3;6.6;;;;;;;;;;;;;
2020/03/20 13:30:59;;;;;;;11.5;6.4;;;;;;;;;;;;;
2020/03/20 13:33:25;;;;;;;10.8;6.4;;;;;;;;;;;;;
2020/03/20 13:35:50;;;;;;;10.1;6.3;;;;;;;;;;;;;
2020/03/20 13:38:15;;;;;;;10.8;6.4;;;;;;;;;;;;;
2020/03/20 13:40:40;;;;;;;12.9;6.2;;;;;;;;;;;;;
2020/03/20 13:43:05;;;;;;;9.2;6;;;;;;;;;;;;;
2020/03/20 13:45:30;;;;;;;8.6;5.6;;;;;;;;;;;;;
2020/03/20 13:47:55;;;;;;;8.9;5.7;;;;;;;;;;;;;
2020/03/20 13:50:20;;;;;;;8.4;5.7;;;;;;;;;;;;;
2020/03/20 13:52:47;;;;;;;10.5;6.1;;;;;;;;;;;;;
2020/03/20 13:55:12;;;;;;;14.5;6.3;;;;;;;;;;;;;
2020/03/20 13:57:37;;;;;;;11.1;6.3;;;;;;;;;;;;;
2020/03/20 14:00:02;;;;;;;12.1;6.9;;;;;;;;;;;;;
2020/03/20 14:02:27;;;;;;;7.1;6.4;;;;;;;;;;;;;
2020/03/20 14:04:52;;;;;;;10.6;7.1;;;;;;;;;;;;;
2020/03/20 14:07:17;;;;;;;12.1;7.4;;;;;;;;;;;;;
2020/03/20 14:09:43;;;;;;;15;7.5;;;;;;;;;;;;;
2020/03/20 14:12:08;;;;;;;10.1;7.1;;;;;;;;;;;;;
2020/03/20 14:14:33;;;;;;;12.9;7.3;;;;;;;;;;;;;
2020/03/20 14:16:58;;;;;;;12.6;7.3;;;;;;;;;;;;;
2020/03/20 14:19:23;;;;;;;12.7;7.1;;;;;;;;;;;;;
2020/03/20 14:21:57;;;;;;;14.7;6.6;;;;;;;;;;;;;
2020/03/20 14:26:38;;;;;;;16.2;6.8;;;;;;;;;;;;;
2020/03/20 14:29:03;;;;;;;11.5;6.3;;;;;;;;;;;;;
2020/03/20 14:31:28;;;;;;;14.4;6.3;;;;;;;;;;;;;
2020/03/20 14:33:54;;;;;;;15.1;7.1;;;;;;;;;;;;;
2020/03/20 14:36:19;;;;;;;23;8;;;;;;;;;;;;;
2020/03/20 14:38:44;;;;;;;22.2;8;;;;;;;;;;;;;
2020/03/20 14:41:09;;;;;;;35.9;10.1;;;;;;;;;;;;;
2020/03/20 14:43:34;;;;;;;24.4;8.3;;;;;;;;;;;;;
2020/03/20 14:45:59;;;;;;;17.7;7.3;;;;;;;;;;;;;
2020/03/20 14:48:25;;;;;;;13.4;7.3;;;;;;;;;;;;;
2020/03/20 14:50:50;;;;;;;13.4;7.4;;;;;;;;;;;;;
2020/03/20 14:53:15;;;;;;;12.7;7;;;;;;;;;;;;;
2020/03/20 14:55:40;;;;;;;14;7;;;;;;;;;;;;;
2020/03/20 14:58:05;;;;;;;12.9;7.3;;;;;;;;;;;;;
2020/03/20 15:00:30;;;;;;;18.3;7.6;;;;;;;;;;;;;
2020/03/20 15:02:55;;;;;;;14.7;8.2;;;;;;;;;;;;;
2020/03/20 15:05:20;;;;;;;16.3;7.9;;;;;;;;;;;;;
2020/03/20 15:07:45;;;;;;;16;7.8;;;;;;;;;;;;;
2020/03/20 15:10:10;;;;;;;13.3;7.8;;;;;;;;;;;;;
2020/03/20 15:12:36;;;;;;;16.2;8;;;;;;;;;;;;;
2020/03/20 15:15:01;;;;;;;18.2;8.7;;;;;;;;;;;;;
2020/03/20 15:17:26;;;;;;;17.9;8.3;;;;;;;;;;;;;
2020/03/20 15:19:51;;;;;;;20.5;8.9;;;;;;;;;;;;;
2020/03/20 15:22:16;;;;;;;18.1;8.4;;;;;;;;;;;;;
2020/03/20 15:24:41;;;;;;;17.2;8.1;;;;;;;;;;;;;
2020/03/20 15:27:06;;;;;;;24.1;9.3;;;;;;;;;;;;;
2020/03/20 15:29:32;;;;;;;14.2;7.6;;;;;;;;;;;;;
2020/03/20 15:31:57;;;;;;;18.6;7.8;;;;;;;;;;;;;
2020/03/20 15:34:22;;;;;;;16;8.1;;;;;;;;;;;;;
2020/03/20 15:36:48;;;;;;;15.8;7.4;;;;;;;;;;;;;
2020/03/20 15:39:13;;;;;;;14.5;7.7;;;;;;;;;;;;;
2020/03/20 15:41:39;;;;;;;13.9;8.2;;;;;;;;;;;;;
2020/03/20 15:44:04;;;;;;;14.4;8.3;;;;;;;;;;;;;
2020/03/20 15:46:29;;;;;;;14.4;7.8;;;;;;;;;;;;;
2020/03/20 15:48:54;;;;;;;14.2;7.8;;;;;;;;;;;;;
2020/03/20 15:51:19;;;;;;;13.6;8.2;;;;;;;;;;;;;
2020/03/20 15:53:44;;;;;;;16.5;8;;;;;;;;;;;;;
2020/03/20 15:56:10;;;;;;;14.3;7.6;;;;;;;;;;;;;
2020/03/20 15:58:35;;;;;;;15.4;7.9;;;;;;;;;;;;;
2020/03/20 16:01:00;;;;;;;13.1;8.4;;;;;;;;;;;;;
2020/03/20 16:03:26;;;;;;;15.3;7.8;;;;;;;;;;;;;
2020/03/20 16:05:51;;;;;;;14.4;7.5;;;;;;;;;;;;;
2020/03/20 16:08:16;;;;;;;14.3;7.7;;;;;;;;;;;;;
2020/03/20 16:10:41;;;;;;;14.3;8;;;;;;;;;;;;;
2020/03/20 16:13:06;;;;;;;15.1;8.1;;;;;;;;;;;;;
2020/03/20 16:15:31;;;;;;;15.5;8.2;;;;;;;;;;;;;
2020/03/20 16:17:56;;;;;;;14.6;8.1;;;;;;;;;;;;;
2020/03/20 16:20:21;;;;;;;14.1;7;;;;;;;;;;;;;
2020/03/20 16:22:46;;;;;;;15.6;7.5;;;;;;;;;;;;;
2020/03/20 16:25:11;;;;;;;17;7.5;;;;;;;;;;;;;
2020/03/20 16:27:37;;;;;;;11.8;7.3;;;;;;;;;;;;;
2020/03/20 16:30:02;;;;;;;13.4;7.6;;;;;;;;;;;;;
2020/03/20 16:32:27;;;;;;;17.6;7.6;;;;;;;;;;;;;
2020/03/20 16:34:52;;;;;;;22.8;8.5;;;;;;;;;;;;;
2020/03/20 16:37:18;;;;;;;19.5;8.3;;;;;;;;;;;;;
2020/03/20 16:39:43;;;;;;;21.5;7.5;;;;;;;;;;;;;
2020/03/20 16:42:14;;;;;;;17.9;6.9;;;;;;;;;;;;;
2020/03/20 16:44:33;;;;;;;36.3;19;;;;;;;;;;;;;
2020/03/20 16:46:58;;;;;;;8.7;5;;;;;;;;;;;;;
2020/03/20 16:49:23;;;;;;;9.7;5.3;;;;;;;;;;;;;
2020/03/20 16:51:49;;;;;;;9.7;4.5;;;;;;;;;;;;;
2020/03/20 16:54:14;;;;;;;8.7;4.3;;;;;;;;;;;;;
2020/03/20 16:56:39;;;;;;;6.8;4;;;;;;;;;;;;;
2020/03/20 16:59:04;;;;;;;8;4.5;;;;;;;;;;;;;
2020/03/20 17:01:29;;;;;;;9.9;6.6;;;;;;;;;;;;;
2020/03/20 17:03:55;;;;;;;11.6;8.2;;;;;;;;;;;;;
2020/03/20 17:06:20;;;;;;;9.6;4.5;;;;;;;;;;;;;
2020/03/20 17:08:45;;;;;;;8.8;4.2;;;;;;;;;;;;;
2020/03/20 17:11:11;;;;;;;7.2;4.1;;;;;;;;;;;;;
2020/03/20 17:13:35;;;;;;;9.7;4.1;;;;;;;;;;;;;
2020/03/20 17:16:01;;;;;;;8.8;4.3;;;;;;;;;;;;;
2020/03/20 17:18:26;;;;;;;8.1;4.1;;;;;;;;;;;;;
2020/03/20 17:20:51;;;;;;;9.1;4.5;;;;;;;;;;;;;
2020/03/20 17:23:16;;;;;;;8.2;4.8;;;;;;;;;;;;;
2020/03/20 17:25:42;;;;;;;9.8;4.9;;;;;;;;;;;;;
2020/03/20 17:28:06;;;;;;;10.4;5.2;;;;;;;;;;;;;
2020/03/20 17:30:31;;;;;;;10.3;5.6;;;;;;;;;;;;;
2020/03/20 17:32:57;;;;;;;10.1;5.7;;;;;;;;;;;;;
2020/03/20 17:35:22;;;;;;;11.5;6;;;;;;;;;;;;;
2020/03/20 17:37:47;;;;;;;11.9;6.1;;;;;;;;;;;;;
2020/03/20 17:40:13;;;;;;;12.2;6.8;;;;;;;;;;;;;
2020/03/20 17:42:38;;;;;;;12.7;7.7;;;;;;;;;;;;;
2020/03/20 17:45:03;;;;;;;14.5;7.6;;;;;;;;;;;;;
2020/03/20 17:47:28;;;;;;;13;8.4;;;;;;;;;;;;;
2020/03/20 17:49:54;;;;;;;15.6;8;;;;;;;;;;;;;
2020/03/20 17:52:19;;;;;;;13.8;8;;;;;;;;;;;;;
2020/03/20 17:54:44;;;;;;;11.6;8;;;;;;;;;;;;;
2020/03/20 17:57:09;;;;;;;15.1;8;;;;;;;;;;;;;
2020/03/20 17:59:34;;;;;;;13.6;8.4;;;;;;;;;;;;;
2020/03/20 18:01:59;;;;;;;13;9.1;;;;;;;;;;;;;
2020/03/20 18:04:24;;;;;;;12.6;8.5;;;;;;;;;;;;;
2020/03/20 18:06:49;;;;;;;15;8.3;;;;;;;;;;;;;
2020/03/20 18:09:14;;;;;;;9.4;7.7;;;;;;;;;;;;;
2020/03/20 18:11:39;;;;;;;12.6;7.3;;;;;;;;;;;;;
2020/03/20 18:14:05;;;;;;;12.8;8.1;;;;;;;;;;;;;
2020/03/20 18:16:30;;;;;;;11;7.5;;;;;;;;;;;;;
2020/03/20 18:18:55;;;;;;;13.3;8.3;;;;;;;;;;;;;
2020/03/20 18:21:20;;;;;;;15.9;8;;;;;;;;;;;;;
2020/03/20 18:23:45;;;;;;;13.4;9.9;;;;;;;;;;;;;
2020/03/20 18:26:10;;;;;;;16.1;11.9;;;;;;;;;;;;;
2020/03/20 18:28:35;;;;;;;13.3;9.7;;;;;;;;;;;;;
2020/03/20 18:31:00;;;;;;;12.5;7.2;;;;;;;;;;;;;
2020/03/20 18:33:25;;;;;;;10.3;7.7;;;;;;;;;;;;;
2020/03/20 18:35:50;;;;;;;11.4;7.3;;;;;;;;;;;;;
2020/03/20 18:38:16;;;;;;;24.2;17.9;;;;;;;;;;;;;
2020/03/20 18:42:23;;;;;;;12.6;8.3;;;;;;;;;;;;;
2020/03/20 18:44:48;;;;;;;12.5;7.7;;;;;;;;;;;;;
2020/03/20 18:47:13;;;;;;;10.8;7.1;;;;;;;;;;;;;
2020/03/20 18:49:38;;;;;;;11.9;8;;;;;;;;;;;;;
2020/03/20 18:52:04;;;;;;;11.3;8;;;;;;;;;;;;;